Time;durP1;ratioP1;P1;durP2;ratioP2;P2;SDS_P1;SDS_P2;PMS_P1;PMS_P2;Temp;Humidity;BMP_temperature;BMP_pressure;BME280_temperature;BME280_humidity;BME280_pressure;Samples;Min_cycle;Max_cycle;Signal;HPM_P1;HPM_P2
2022/05/05 00:01:09;;;;;;;20.73;3.50;;;;;;;;;;5052318;28;20127;-59
2022/05/05 00:03:38;;;;;;;13.85;3.13;;;;;;;;;;5053879;28;20048;-59
2022/05/05 00:06:05;;;;;;;14.13;2.85;;;;;;;;;;5050510;28;20095;-60
2022/05/05 00:08:31;;;;;;;12.13;2.05;;;;;;;;;;5049636;28;20108;-59
2022/05/05 00:16:29;;;;;;;12.73;2.92;;;;;;;;;;5050356;28;20107;-60
2022/05/05 00:18:55;;;;;;;23.15;3.67;;;;;;;;;;5054022;28;20048;-59
2022/05/05 00:21:22;;;;;;;13.75;2.42;;;;;;;;;;5051671;28;20041;-60
2022/05/05 00:23:49;;;;;;;7.88;2.38;;;;;;;;;;5050051;28;20049;-59
2022/05/05 00:26:15;;;;;;;9.93;2.28;;;;;;;;;;5050103;28;20390;-60
2022/05/05 00:28:42;;;;;;;11.30;3.00;;;;;;;;;;5050018;28;20049;-59
2022/05/05 00:31:09;;;;;;;22.35;3.85;;;;;;;;;;5052077;28;20126;-59
2022/05/05 00:33:35;;;;;;;10.88;2.65;;;;;;;;;;5053296;28;20099;-59
2022/05/05 00:36:02;;;;;;;16.20;2.78;;;;;;;;;;5049783;28;20037;-59
2022/05/05 00:38:29;;;;;;;13.95;2.58;;;;;;;;;;5050093;28;20037;-59
2022/05/05 00:40:56;;;;;;;7.80;2.13;;;;;;;;;;5049773;28;20033;-59
2022/05/05 00:43:23;;;;;;;15.05;2.88;;;;;;;;;;5050037;28;20037;-59
2022/05/05 00:45:50;;;;;;;12.23;2.78;;;;;;;;;;5054532;28;20544;-59
2022/05/05 00:48:17;;;;;;;27.48;3.83;;;;;;;;;;5049380;28;20127;-59
2022/05/05 00:50:43;;;;;;;16.95;2.90;;;;;;;;;;5049266;28;20041;-59
2022/05/05 00:53:10;;;;;;;14.43;2.92;;;;;;;;;;5049596;28;20044;-59
2022/05/05 00:55:38;;;;;;;12.73;2.40;;;;;;;;;;5049599;28;20065;-59
2022/05/05 00:58:04;;;;;;;19.52;3.80;;;;;;;;;;5052249;28;20095;-59
2022/05/05 01:00:32;;;;;;;34.05;4.05;;;;;;;;;;5051420;28;20061;-59
2022/05/05 01:02:59;;;;;;;10.40;2.70;;;;;;;;;;5049648;28;20045;-59
2022/05/05 01:05:29;;;;;;;11.50;2.92;;;;;;;;;;5049075;28;20049;-59
2022/05/05 01:07:56;;;;;;;5.93;2.38;;;;;;;;;;5049507;28;20045;-59
2022/05/05 01:10:24;;;;;;;14.25;2.58;;;;;;;;;;5035224;28;20084;-59
2022/05/05 01:12:52;;;;;;;20.98;3.42;;;;;;;;;;5054664;28;20041;-59
2022/05/05 01:15:19;;;;;;;19.75;3.35;;;;;;;;;;5049359;28;20098;-59
2022/05/05 01:17:45;;;;;;;15.18;2.83;;;;;;;;;;5049131;28;20486;-59
2022/05/05 01:20:13;;;;;;;22.92;3.28;;;;;;;;;;5049181;28;20041;-59
2022/05/05 01:22:39;;;;;;;18.13;2.88;;;;;;;;;;5049239;28;20045;-59
2022/05/05 01:30:38;;;;;;;26.10;3.53;;;;;;;;;;5051798;28;20049;-59
2022/05/05 01:33:15;;;;;;;20.15;3.30;;;;;;;;;;5048809;28;20041;-59
2022/05/05 01:35:42;;;;;;;11.30;3.25;;;;;;;;;;5048845;28;20040;-59
2022/05/05 01:38:10;;;;;;;15.18;2.97;;;;;;;;;;5049019;28;20072;-59
2022/05/05 01:40:39;;;;;;;11.07;2.20;;;;;;;;;;5048769;28;20485;-59
2022/05/05 01:43:06;;;;;;;18.98;3.00;;;;;;;;;;5051436;28;20091;-59
2022/05/05 01:45:33;;;;;;;24.42;3.67;;;;;;;;;;5051128;28;20048;-59
2022/05/05 01:48:00;;;;;;;11.25;2.40;;;;;;;;;;5048538;28;20056;-59
2022/05/05 01:50:27;;;;;;;8.48;2.38;;;;;;;;;;5048697;28;20033;-59
2022/05/05 01:52:53;;;;;;;6.75;2.33;;;;;;;;;;5048563;28;20037;-59
2022/05/05 01:55:21;;;;;;;13.80;2.78;;;;;;;;;;5048966;28;20045;-59
2022/05/05 01:57:48;;;;;;;9.75;2.63;;;;;;;;;;5053653;28;20037;-59
2022/05/05 02:00:15;;;;;;;18.30;2.83;;;;;;;;;;5047345;28;20062;-59
2022/05/05 02:02:42;;;;;;;12.38;2.15;;;;;;;;;;5043309;28;20040;-59
2022/05/05 02:05:10;;;;;;;13.68;2.40;;;;;;;;;;5048214;28;20064;-59
2022/05/05 02:07:40;;;;;;;13.30;2.50;;;;;;;;;;5048398;28;20091;-60
2022/05/05 02:10:08;;;;;;;26.10;3.65;;;;;;;;;;5036349;28;20472;-60
2022/05/05 02:12:38;;;;;;;23.00;3.42;;;;;;;;;;5050985;28;20079;-60
2022/05/05 02:15:09;;;;;;;12.88;2.35;;;;;;;;;;5048358;28;20056;-59
2022/05/05 02:17:40;;;;;;;9.98;2.90;;;;;;;;;;5062763;28;20532;-60
2022/05/05 02:20:07;;;;;;;13.55;2.50;;;;;;;;;;5048005;28;20124;-59
2022/05/05 02:22:34;;;;;;;9.73;2.38;;;;;;;;;;5047915;28;20073;-59
2022/05/05 02:25:00;;;;;;;16.02;2.55;;;;;;;;;;5051865;28;20087;-60
2022/05/05 02:27:27;;;;;;;7.55;1.50;;;;;;;;;;5049387;28;20043;-59
2022/05/05 02:29:53;;;;;;;37.13;6.03;;;;;;;;;;5047641;28;20110;-59
2022/05/05 02:32:20;;;;;;;17.30;2.97;;;;;;;;;;5047189;28;20120;-59
2022/05/05 02:34:50;;;;;;;12.88;1.95;;;;;;;;;;5047936;28;20577;-59
2022/05/05 02:40:01;;;;;;;16.23;2.75;;;;;;;;;;5048453;28;20045;-59
2022/05/05 02:42:28;;;;;;;8.13;2.08;;;;;;;;;;5049748;28;20040;-59
2022/05/05 02:44:55;;;;;;;10.48;1.92;;;;;;;;;;5051294;28;20044;-59
2022/05/05 02:47:21;;;;;;;8.52;1.88;;;;;;;;;;5046976;28;20041;-59
2022/05/05 02:49:48;;;;;;;23.38;2.75;;;;;;;;;;5047514;28;20102;-59
2022/05/05 02:52:14;;;;;;;12.60;2.55;;;;;;;;;;5048707;28;20075;-60
2022/05/05 02:54:47;;;;;;;14.55;2.58;;;;;;;;;;5051506;28;20041;-59
2022/05/05 02:57:14;;;;;;;21.77;3.13;;;;;;;;;;5047138;28;20424;-59
2022/05/05 02:59:41;;;;;;;7.93;2.05;;;;;;;;;;5047525;28;20044;-60
2022/05/05 03:02:08;;;;;;;10.20;1.75;;;;;;;;;;5047020;28;20037;-60
2022/05/05 03:04:34;;;;;;;12.68;2.78;;;;;;;;;;5047400;28;20041;-59
2022/05/05 03:07:01;;;;;;;23.33;3.63;;;;;;;;;;5050510;28;20478;-60
2022/05/05 03:09:27;;;;;;;10.45;2.20;;;;;;;;;;5038673;28;20080;-60
2022/05/05 03:11:54;;;;;;;17.95;2.65;;;;;;;;;;5043704;28;20037;-59
2022/05/05 03:14:20;;;;;;;11.25;2.03;;;;;;;;;;5046904;28;20037;-59
2022/05/05 03:16:47;;;;;;;27.08;4.47;;;;;;;;;;5046962;28;20076;-59
2022/05/05 03:19:14;;;;;;;8.20;2.00;;;;;;;;;;5048978;28;25547;-59
2022/05/05 03:21:41;;;;;;;27.40;3.80;;;;;;;;;;5050665;28;20136;-59
2022/05/05 03:24:07;;;;;;;12.50;2.30;;;;;;;;;;5047111;28;20052;-60
2022/05/05 03:26:34;;;;;;;18.58;2.72;;;;;;;;;;5047166;28;20033;-59
2022/05/05 03:29:01;;;;;;;58.03;5.43;;;;;;;;;;5046801;28;20048;-60
2022/05/05 03:31:27;;;;;;;18.88;2.92;;;;;;;;;;5047312;28;20045;-59
2022/05/05 03:33:54;;;;;;;20.80;2.88;;;;;;;;;;5051871;28;20068;-59
2022/05/05 03:36:20;;;;;;;18.23;2.50;;;;;;;;;;5047541;28;20095;-59
2022/05/05 03:38:47;;;;;;;17.27;2.65;;;;;;;;;;5047312;28;20073;-60
2022/05/05 03:41:13;;;;;;;9.55;2.05;;;;;;;;;;5047039;28;20037;-59
2022/05/05 03:43:40;;;;;;;10.98;2.40;;;;;;;;;;5046902;28;20061;-60
2022/05/05 03:46:06;;;;;;;30.58;3.63;;;;;;;;;;5048876;28;20218;-60
2022/05/05 03:48:33;;;;;;;25.25;3.15;;;;;;;;;;5049371;28;20072;-59
2022/05/05 03:51:00;;;;;;;8.52;2.33;;;;;;;;;;5046993;28;20041;-59
2022/05/05 03:53:26;;;;;;;18.10;3.03;;;;;;;;;;5046530;28;20041;-59
2022/05/05 03:55:53;;;;;;;13.30;2.28;;;;;;;;;;5047708;28;20575;-60
2022/05/05 03:58:19;;;;;;;21.45;2.75;;;;;;;;;;5047328;28;20071;-59
2022/05/05 04:00:46;;;;;;;25.38;3.10;;;;;;;;;;5050515;28;20107;-60
2022/05/05 04:03:31;;;;;;;12.68;1.92;;;;;;;;;;5046593;28;20041;-60
2022/05/05 04:06:03;;;;;;;9.93;1.98;;;;;;;;;;5046952;28;20045;-60
2022/05/05 04:08:30;;;;;;;12.10;2.92;;;;;;;;;;5043652;28;20037;-59
2022/05/05 04:10:57;;;;;;;13.73;2.08;;;;;;;;;;5035597;28;20049;-59
2022/05/05 04:13:25;;;;;;;19.80;3.35;;;;;;;;;;5046882;28;20041;-59
2022/05/05 04:15:52;;;;;;;29.50;3.83;;;;;;;;;;5046949;28;20045;-59
2022/05/05 04:18:19;;;;;;;12.02;2.70;;;;;;;;;;5046651;28;20044;-59
2022/05/05 04:20:47;;;;;;;13.45;2.15;;;;;;;;;;5046698;28;20068;-59
2022/05/05 04:23:14;;;;;;;8.32;2.20;;;;;;;;;;5046547;28;20057;-58
2022/05/05 04:26:00;;;;;;;12.68;2.50;;;;;;;;;;5048697;28;20354;-60
2022/05/05 04:28:27;;;;;;;15.93;2.85;;;;;;;;;;5050068;28;20114;-59
2022/05/05 04:30:54;;;;;;;70.40;8.00;;;;;;;;;;5054753;28;20136;-59
2022/05/05 04:33:20;;;;;;;11.27;2.20;;;;;;;;;;5049953;28;20064;-59
2022/05/05 04:35:47;;;;;;;11.10;2.22;;;;;;;;;;5065470;28;20489;-59
2022/05/05 04:38:14;;;;;;;21.83;3.22;;;;;;;;;;5050127;28;20064;-59
2022/05/05 04:40:40;;;;;;;15.23;2.70;;;;;;;;;;5049993;28;20030;-59
2022/05/05 04:43:07;;;;;;;17.33;2.88;;;;;;;;;;5052542;28;20876;-58
2022/05/05 04:45:33;;;;;;;28.27;3.90;;;;;;;;;;5051829;28;20098;-59
2022/05/05 04:48:00;;;;;;;18.38;2.95;;;;;;;;;;5049884;28;20076;-59
2022/05/05 04:50:27;;;;;;;18.83;2.70;;;;;;;;;;5049466;28;20037;-59
2022/05/05 04:52:53;;;;;;;11.73;2.90;;;;;;;;;;5049843;28;20033;-59
2022/05/05 04:55:20;;;;;;;20.33;3.17;;;;;;;;;;5050129;28;20466;-59
2022/05/05 04:57:46;;;;;;;22.27;3.78;;;;;;;;;;5053921;28;20037;-60
2022/05/05 05:00:13;;;;;;;20.90;3.38;;;;;;;;;;5049180;28;20084;-59
2022/05/05 05:02:40;;;;;;;23.95;2.97;;;;;;;;;;5049185;28;20804;-59
2022/05/05 05:05:07;;;;;;;10.82;2.45;;;;;;;;;;5049340;28;20044;-59
2022/05/05 05:07:33;;;;;;;19.02;3.30;;;;;;;;;;5049548;28;20432;-59
2022/05/05 05:10:00;;;;;;;20.90;3.38;;;;;;;;;;5038225;28;20115;-59
2022/05/05 05:12:27;;;;;;;46.95;5.65;;;;;;;;;;5050489;28;20037;-59
2022/05/05 05:14:53;;;;;;;35.95;4.90;;;;;;;;;;5048925;28;20044;-59
2022/05/05 05:17:20;;;;;;;19.25;2.75;;;;;;;;;;5049105;28;20033;-59
2022/05/05 05:19:47;;;;;;;8.90;2.90;;;;;;;;;;5049201;28;20120;-59
2022/05/05 05:22:13;;;;;;;53.50;5.70;;;;;;;;;;5051031;28;20045;-59
2022/05/05 05:24:40;;;;;;;15.20;2.67;;;;;;;;;;5052244;28;20079;-59
2022/05/05 05:27:07;;;;;;;19.10;2.90;;;;;;;;;;5049380;28;20036;-59
2022/05/05 05:29:33;;;;;;;15.98;2.10;;;;;;;;;;5048729;28;20072;-59
2022/05/05 05:32:00;;;;;;;28.55;4.25;;;;;;;;;;5031709;28;20045;-59
2022/05/05 05:34:26;;;;;;;44.72;5.63;;;;;;;;;;5048751;28;20052;-59
2022/05/05 05:36:53;;;;;;;22.77;3.80;;;;;;;;;;5044842;28;20053;-59
2022/05/05 05:39:19;;;;;;;21.15;3.17;;;;;;;;;;5048706;28;20051;-59
2022/05/05 05:41:46;;;;;;;11.15;2.50;;;;;;;;;;5048821;28;20037;-59
2022/05/05 05:44:13;;;;;;;53.33;5.50;;;;;;;;;;5048627;28;20132;-58
2022/05/05 05:46:39;;;;;;;19.30;3.33;;;;;;;;;;5048267;28;20099;-59
2022/05/05 05:49:06;;;;;;;29.55;3.30;;;;;;;;;;5051821;28;20524;-59
2022/05/05 05:51:32;;;;;;;29.85;3.60;;;;;;;;;;5050361;28;20048;-59
2022/05/05 05:53:59;;;;;;;15.60;3.50;;;;;;;;;;5048624;28;20489;-59
2022/05/05 05:56:26;;;;;;;27.17;3.75;;;;;;;;;;5048277;28;20512;-60
2022/05/05 05:58:52;;;;;;;20.90;2.80;;;;;;;;;;5048449;28;20072;-59
2022/05/05 06:01:19;;;;;;;42.58;5.13;;;;;;;;;;5049157;28;20061;-59
2022/05/05 06:16:09;;;;;;;14.30;3.28;;;;;;;;;;5150008;27;20424;-60
2022/05/05 06:18:37;;;;;;;16.60;3.08;;;;;;;;;;5150415;27;20074;-59
2022/05/05 06:21:03;;;;;;;22.08;3.78;;;;;;;;;;5149672;27;20404;-60
2022/05/05 06:23:30;;;;;;;14.43;3.45;;;;;;;;;;5150114;27;20070;-60
2022/05/05 06:25:56;;;;;;;16.42;3.40;;;;;;;;;;5151169;27;20157;-60
2022/05/05 06:28:23;;;;;;;17.23;3.47;;;;;;;;;;5150186;27;20050;-60
2022/05/05 06:30:49;;;;;;;30.70;4.10;;;;;;;;;;5150040;27;20126;-60
2022/05/05 06:33:16;;;;;;;14.52;3.65;;;;;;;;;;5150261;27;20033;-60
2022/05/05 06:35:42;;;;;;;25.90;3.63;;;;;;;;;;5149500;27;20035;-59
2022/05/05 06:38:08;;;;;;;30.10;4.63;;;;;;;;;;5150116;27;20051;-60
2022/05/05 06:40:35;;;;;;;162.27;14.45;;;;;;;;;;5150047;27;20043;-60
2022/05/05 06:43:03;;;;;;;15.13;3.00;;;;;;;;;;5149878;27;20077;-60
2022/05/05 06:45:30;;;;;;;13.45;2.90;;;;;;;;;;5149634;27;20049;-60
2022/05/05 06:47:58;;;;;;;20.15;2.58;;;;;;;;;;5149709;27;20035;-60
2022/05/05 06:50:25;;;;;;;16.13;3.53;;;;;;;;;;5149469;27;20092;-60
2022/05/05 06:52:52;;;;;;;129.50;12.55;;;;;;;;;;5149351;27;20035;-60
2022/05/05 06:55:18;;;;;;;13.93;3.25;;;;;;;;;;5149273;27;20063;-60
2022/05/05 06:57:46;;;;;;;30.60;4.75;;;;;;;;;;5149382;27;20043;-60
2022/05/05 07:00:13;;;;;;;38.45;5.10;;;;;;;;;;5147987;27;20783;-60
2022/05/05 07:02:39;;;;;;;29.85;5.43;;;;;;;;;;5148293;27;20050;-60
2022/05/05 07:05:26;;;;;;;136.13;13.88;;;;;;;;;;5149353;27;20050;-60
2022/05/05 07:07:52;;;;;;;24.83;6.13;;;;;;;;;;5149502;27;20035;-60
2022/05/05 07:13:05;;;;;;;40.63;4.63;;;;;;;;;;5148870;27;20062;-61
2022/05/05 07:15:32;;;;;;;29.38;3.55;;;;;;;;;;5143388;27;20066;-61
2022/05/05 07:17:59;;;;;;;12.68;2.47;;;;;;;;;;5134869;27;20527;-60
2022/05/05 07:20:25;;;;;;;26.67;4.57;;;;;;;;;;5134713;27;20051;-60
2022/05/05 07:22:52;;;;;;;23.40;4.70;;;;;;;;;;5134920;27;20035;-60
2022/05/05 07:25:19;;;;;;;18.33;3.67;;;;;;;;;;5115914;27;20066;-60
2022/05/05 07:27:46;;;;;;;24.83;4.07;;;;;;;;;;5134433;27;20148;-61
2022/05/05 07:30:13;;;;;;;23.77;3.88;;;;;;;;;;5134557;27;20082;-60
2022/05/05 07:32:39;;;;;;;49.17;4.10;;;;;;;;;;5133639;27;20100;-60
2022/05/05 07:35:06;;;;;;;17.88;3.38;;;;;;;;;;5133807;27;20035;-61
2022/05/05 07:37:32;;;;;;;214.30;15.05;;;;;;;;;;5134440;27;20114;-60
2022/05/05 07:39:59;;;;;;;26.52;4.13;;;;;;;;;;5134706;27;20039;-61
2022/05/05 07:42:25;;;;;;;20.90;3.58;;;;;;;;;;5133881;27;20499;-61
2022/05/05 07:44:52;;;;;;;215.57;14.73;;;;;;;;;;5133027;27;20035;-60
2022/05/05 07:47:19;;;;;;;36.53;6.20;;;;;;;;;;5132678;27;20117;-60
2022/05/05 07:49:46;;;;;;;27.33;4.47;;;;;;;;;;5132712;27;20518;-60
2022/05/05 07:52:12;;;;;;;13.48;3.05;;;;;;;;;;5112978;27;20145;-60
2022/05/05 07:54:39;;;;;;;27.17;4.55;;;;;;;;;;5130243;27;20122;-60
2022/05/05 07:57:07;;;;;;;21.05;3.42;;;;;;;;;;5133219;27;20118;-60
2022/05/05 07:59:34;;;;;;;28.70;3.90;;;;;;;;;;5117847;27;20387;-60
2022/05/05 08:02:01;;;;;;;18.95;3.20;;;;;;;;;;5134822;27;20126;-60
2022/05/05 08:04:27;;;;;;;13.65;3.17;;;;;;;;;;5134104;27;20071;-60
2022/05/05 08:06:54;;;;;;;23.27;3.80;;;;;;;;;;5133975;27;20061;-60
2022/05/05 08:09:20;;;;;;;15.32;3.20;;;;;;;;;;5133987;27;20376;-60
2022/05/05 08:12:07;;;;;;;11.95;3.22;;;;;;;;;;5127727;27;20040;-60
2022/05/05 08:14:33;;;;;;;13.75;3.15;;;;;;;;;;5129300;27;20095;-60
2022/05/05 08:17:00;;;;;;;31.38;4.93;;;;;;;;;;5134231;27;20047;-60
2022/05/05 08:19:26;;;;;;;19.17;4.82;;;;;;;;;;5134184;27;20035;-60
2022/05/05 08:21:53;;;;;;;24.17;3.85;;;;;;;;;;5132978;27;20035;-60
2022/05/05 08:29:50;;;;;;;36.13;5.50;;;;;;;;;;5133591;27;20043;-60
2022/05/05 08:32:17;;;;;;;383.85;33.08;;;;;;;;;;5133892;27;20035;-60
2022/05/05 08:34:43;;;;;;;15.48;3.95;;;;;;;;;;5134123;27;20134;-60
2022/05/05 08:37:10;;;;;;;14.52;4.13;;;;;;;;;;5133057;27;20035;-60
2022/05/05 08:39:36;;;;;;;18.30;4.65;;;;;;;;;;5132776;27;20039;-60
2022/05/05 08:42:03;;;;;;;26.42;8.00;;;;;;;;;;5133888;27;20035;-60
2022/05/05 08:44:30;;;;;;;16.13;3.58;;;;;;;;;;5133007;27;20043;-60
2022/05/05 08:46:57;;;;;;;13.40;3.05;;;;;;;;;;5133856;27;20039;-60
2022/05/05 08:49:24;;;;;;;59.78;5.78;;;;;;;;;;5114691;27;20408;-60
2022/05/05 08:51:52;;;;;;;21.60;3.08;;;;;;;;;;5133131;27;20038;-60
2022/05/05 08:54:20;;;;;;;41.33;5.07;;;;;;;;;;5132770;27;20041;-60
2022/05/05 08:56:54;;;;;;;16.08;3.28;;;;;;;;;;5133116;27;20474;-60
2022/05/05 08:59:21;;;;;;;24.45;4.40;;;;;;;;;;5132889;27;20050;-60
2022/05/05 09:01:49;;;;;;;11.02;3.20;;;;;;;;;;5114890;27;20078;-60
2022/05/05 09:04:20;;;;;;;18.77;3.35;;;;;;;;;;5132687;27;20122;-60
2022/05/05 09:06:47;;;;;;;15.23;4.40;;;;;;;;;;5132854;27;20122;-60
2022/05/05 09:09:34;;;;;;;14.60;3.05;;;;;;;;;;5132407;27;20039;-60
2022/05/05 09:12:03;;;;;;;16.42;2.47;;;;;;;;;;5132733;27;20039;-60
2022/05/05 09:14:39;;;;;;;24.48;4.45;;;;;;;;;;5132050;27;20074;-60
2022/05/05 09:17:06;;;;;;;12.38;2.92;;;;;;;;;;5133805;27;20122;-60
2022/05/05 09:19:36;;;;;;;20.13;3.60;;;;;;;;;;5132793;27;20035;-60
2022/05/05 09:22:04;;;;;;;13.95;3.35;;;;;;;;;;5132229;27;20043;-60
2022/05/05 09:24:36;;;;;;;15.93;3.00;;;;;;;;;;5132325;27;20122;-60
2022/05/05 09:27:21;;;;;;;18.90;3.50;;;;;;;;;;5132485;27;20043;-61
2022/05/05 09:30:02;;;;;;;13.98;3.90;;;;;;;;;;5132727;27;20039;-60
2022/05/05 09:32:30;;;;;;;19.52;3.97;;;;;;;;;;5132432;27;20051;-60
2022/05/05 09:34:57;;;;;;;8.93;3.13;;;;;;;;;;5133014;27;20126;-60
2022/05/05 09:37:23;;;;;;;16.20;3.47;;;;;;;;;;5132029;27;20054;-60
2022/05/05 09:39:54;;;;;;;22.08;4.32;;;;;;;;;;5131613;27;20084;-60
2022/05/05 09:42:34;;;;;;;47.28;5.50;;;;;;;;;;5132198;27;20089;-60
2022/05/05 09:45:13;;;;;;;20.90;3.95;;;;;;;;;;5132118;27;20468;-60
2022/05/05 09:47:41;;;;;;;19.65;3.72;;;;;;;;;;5132273;27;20557;-60
2022/05/05 09:50:08;;;;;;;21.23;3.17;;;;;;;;;;5132532;27;20036;-60
2022/05/05 09:58:08;;;;;;;16.25;3.40;;;;;;;;;;5131627;27;20039;-61
2022/05/05 10:00:45;;;;;;;30.08;4.63;;;;;;;;;;5131434;27;20032;-61
2022/05/05 10:06:03;;;;;;;36.28;4.68;;;;;;;;;;5131198;28;20039;-60
2022/05/05 10:08:42;;;;;;;34.55;3.58;;;;;;;;;;5132071;27;20114;-60
2022/05/05 10:11:09;;;;;;;108.35;9.85;;;;;;;;;;5131962;27;20057;-60
2022/05/05 10:13:36;;;;;;;88.97;8.20;;;;;;;;;;5132206;27;20043;-60
2022/05/05 10:16:06;;;;;;;18.95;3.03;;;;;;;;;;5131837;27;20062;-60
2022/05/05 10:18:37;;;;;;;78.25;8.50;;;;;;;;;;5131685;27;20406;-60
2022/05/05 10:21:08;;;;;;;17.23;3.15;;;;;;;;;;5131652;27;20574;-60
2022/05/05 10:23:56;;;;;;;46.97;7.20;;;;;;;;;;5131683;27;20468;-60
2022/05/05 10:26:24;;;;;;;17.63;2.78;;;;;;;;;;5131502;27;20039;-60
2022/05/05 10:28:50;;;;;;;21.15;4.18;;;;;;;;;;5132500;27;20490;-60
2022/05/05 10:31:33;;;;;;;21.83;3.08;;;;;;;;;;5131665;27;20042;-61
2022/05/05 10:34:00;;;;;;;16.38;3.33;;;;;;;;;;5130991;27;20043;-60
2022/05/05 10:36:28;;;;;;;13.00;2.88;;;;;;;;;;5130954;27;20051;-61
2022/05/05 10:38:54;;;;;;;32.45;3.83;;;;;;;;;;5131567;27;20039;-61
2022/05/05 10:41:34;;;;;;;32.47;4.53;;;;;;;;;;5112405;28;20047;-60
2022/05/05 10:44:22;;;;;;;14.70;2.55;;;;;;;;;;5132361;27;20035;-60
2022/05/05 10:46:52;;;;;;;16.77;2.60;;;;;;;;;;5130328;27;20039;-60
2022/05/05 10:49:37;;;;;;;21.23;4.07;;;;;;;;;;5131582;27;20043;-60
2022/05/05 10:52:16;;;;;;;37.90;4.35;;;;;;;;;;5132935;27;20061;-60
2022/05/05 10:54:43;;;;;;;33.00;4.18;;;;;;;;;;5135494;27;20031;-61
2022/05/05 10:57:25;;;;;;;15.68;3.17;;;;;;;;;;5135539;27;20043;-61
2022/05/05 11:00:09;;;;;;;15.15;2.50;;;;;;;;;;5135475;27;20039;-60
2022/05/05 11:02:37;;;;;;;21.60;3.75;;;;;;;;;;5119052;27;20031;-61
2022/05/05 11:05:28;;;;;;;22.13;3.30;;;;;;;;;;5135553;27;20039;-60
2022/05/05 11:08:10;;;;;;;31.20;4.13;;;;;;;;;;5135649;27;20480;-60
2022/05/05 11:10:45;;;;;;;24.23;3.55;;;;;;;;;;5134912;27;20131;-60
2022/05/05 11:13:31;;;;;;;25.02;3.30;;;;;;;;;;5135326;27;20046;-61
2022/05/05 11:22:10;;;;;;;21.75;3.67;;;;;;;;;;5134920;27;20039;-60
2022/05/05 11:24:41;;;;;;;34.53;3.85;;;;;;;;;;5134801;27;20073;-60
2022/05/05 11:27:11;;;;;;;22.90;3.50;;;;;;;;;;5135452;27;20071;-60
2022/05/05 11:29:38;;;;;;;20.40;4.88;;;;;;;;;;5134534;27;20043;-60
2022/05/05 11:32:07;;;;;;;13.55;3.22;;;;;;;;;;5131084;27;20077;-60
2022/05/05 11:34:35;;;;;;;24.67;3.88;;;;;;;;;;5134908;27;20050;-60
2022/05/05 11:37:02;;;;;;;29.33;4.25;;;;;;;;;;5116026;27;20055;-60
2022/05/05 11:39:29;;;;;;;16.92;3.33;;;;;;;;;;5134451;27;20035;-61
2022/05/05 11:41:59;;;;;;;113.88;9.15;;;;;;;;;;5134709;27;20035;-61
2022/05/05 11:44:27;;;;;;;26.42;4.28;;;;;;;;;;5134580;27;20043;-60
2022/05/05 11:46:54;;;;;;;13.88;3.90;;;;;;;;;;5135171;27;20519;-61
2022/05/05 11:49:21;;;;;;;39.85;5.35;;;;;;;;;;5134641;27;20071;-61
2022/05/05 11:51:48;;;;;;;175.73;13.70;;;;;;;;;;5134167;27;20039;-60
2022/05/05 11:54:15;;;;;;;36.65;4.60;;;;;;;;;;5134661;27;20027;-60
2022/05/05 11:56:43;;;;;;;15.57;3.75;;;;;;;;;;5134398;27;20035;-61
2022/05/05 12:02:10;;;;;;;14.70;2.85;;;;;;;;;;5134663;27;20110;-60
2022/05/05 12:04:38;;;;;;;27.30;4.05;;;;;;;;;;5133757;27;20047;-60
2022/05/05 12:07:06;;;;;;;60.03;5.72;;;;;;;;;;5132199;27;20043;-60
2022/05/05 12:09:33;;;;;;;50.03;5.90;;;;;;;;;;5134392;27;20126;-61
2022/05/05 12:12:19;;;;;;;18.77;4.57;;;;;;;;;;5134368;27;20504;-60
2022/05/05 12:14:47;;;;;;;12.57;3.38;;;;;;;;;;5133815;27;20043;-60
2022/05/05 12:17:18;;;;;;;389.75;34.72;;;;;;;;;;5134287;27;20043;-60
2022/05/05 12:19:51;;;;;;;24.70;4.28;;;;;;;;;;5134600;27;20047;-60
2022/05/05 12:22:28;;;;;;;21.30;3.65;;;;;;;;;;5133287;27;20039;-60
2022/05/05 12:24:54;;;;;;;201.13;15.55;;;;;;;;;;5133823;27;20043;-61
2022/05/05 12:27:27;;;;;;;35.28;4.57;;;;;;;;;;5133738;27;20039;-60
2022/05/05 12:29:54;;;;;;;148.40;12.90;;;;;;;;;;5127139;27;20114;-60
2022/05/05 12:32:21;;;;;;;68.32;8.40;;;;;;;;;;5132672;27;20125;-60
2022/05/05 12:34:48;;;;;;;128.88;9.20;;;;;;;;;;5133648;27;20530;-60
2022/05/05 12:37:18;;;;;;;24.70;4.28;;;;;;;;;;5132877;27;20047;-60
2022/05/05 12:40:08;;;;;;;35.33;5.50;;;;;;;;;;5133187;27;20050;-60
2022/05/05 12:42:46;;;;;;;13.50;3.50;;;;;;;;;;5122847;27;20059;-60
2022/05/05 12:45:26;;;;;;;23.63;4.03;;;;;;;;;;5133424;27;20404;-60
2022/05/05 12:47:54;;;;;;;29.42;5.10;;;;;;;;;;5132966;27;20047;-60
2022/05/05 12:50:40;;;;;;;42.40;5.82;;;;;;;;;;5133123;27;20122;-60
2022/05/05 13:01:28;;;;;;;22.25;4.13;;;;;;;;;;5132836;27;20043;-60
2022/05/05 13:03:54;;;;;;;17.40;3.58;;;;;;;;;;5133156;27;20095;-61
2022/05/05 13:06:24;;;;;;;15.57;3.83;;;;;;;;;;5132431;27;20039;-61
2022/05/05 13:08:51;;;;;;;65.85;8.27;;;;;;;;;;5131390;27;20080;-60
2022/05/05 13:11:18;;;;;;;43.47;5.75;;;;;;;;;;5133402;27;20050;-60
2022/05/05 13:13:45;;;;;;;19.17;3.45;;;;;;;;;;5133018;27;20039;-60
2022/05/05 13:16:11;;;;;;;22.45;3.85;;;;;;;;;;5132533;27;20122;-61
2022/05/05 13:18:38;;;;;;;19.88;3.92;;;;;;;;;;5132721;27;20499;-61
2022/05/05 13:21:04;;;;;;;33.50;4.68;;;;;;;;;;5132531;27;20109;-61
2022/05/05 13:23:31;;;;;;;41.28;5.28;;;;;;;;;;5132906;27;20054;-60
2022/05/05 13:25:57;;;;;;;16.35;3.08;;;;;;;;;;5133297;27;20039;-61
2022/05/05 13:28:24;;;;;;;14.95;2.70;;;;;;;;;;5132982;27;20118;-60
2022/05/05 13:30:50;;;;;;;77.82;8.35;;;;;;;;;;5132970;27;20039;-60
2022/05/05 13:33:17;;;;;;;33.50;4.75;;;;;;;;;;5132499;27;20042;-60
2022/05/05 13:35:44;;;;;;;28.73;4.03;;;;;;;;;;5132715;27;20114;-60
2022/05/05 13:38:11;;;;;;;25.38;3.50;;;;;;;;;;5133204;27;20050;-60
2022/05/05 13:40:37;;;;;;;15.68;2.72;;;;;;;;;;5133125;27;20043;-61
2022/05/05 13:43:04;;;;;;;49.30;4.75;;;;;;;;;;5132756;27;20050;-61
2022/05/05 13:45:31;;;;;;;22.83;3.25;;;;;;;;;;5132351;27;20038;-61
2022/05/05 13:47:58;;;;;;;9.32;2.65;;;;;;;;;;5133093;27;20039;-61
2022/05/05 13:50:25;;;;;;;17.20;3.67;;;;;;;;;;5132558;27;20071;-61
2022/05/05 13:52:52;;;;;;;23.13;3.83;;;;;;;;;;5132958;27;20036;-61
2022/05/05 13:55:18;;;;;;;18.13;3.70;;;;;;;;;;5132491;27;20037;-61
2022/05/05 13:57:45;;;;;;;32.65;4.55;;;;;;;;;;5131676;27;20039;-61
2022/05/05 14:00:13;;;;;;;29.08;3.80;;;;;;;;;;5131945;27;20400;-61
2022/05/05 14:02:41;;;;;;;37.65;4.60;;;;;;;;;;5115992;28;20442;-60
2022/05/05 14:05:08;;;;;;;64.38;6.93;;;;;;;;;;5110207;28;20104;-61
2022/05/05 14:13:05;;;;;;;143.18;11.65;;;;;;;;;;5131062;27;20035;-60
2022/05/05 14:15:31;;;;;;;28.15;4.38;;;;;;;;;;5127770;27;20752;-60
2022/05/05 14:17:58;;;;;;;21.67;4.60;;;;;;;;;;5131685;28;20086;-60
2022/05/05 14:20:26;;;;;;;121.00;10.95;;;;;;;;;;5132219;28;20050;-60
2022/05/05 14:22:53;;;;;;;16.80;3.63;;;;;;;;;;5132524;28;20047;-60
2022/05/05 14:25:20;;;;;;;27.20;4.80;;;;;;;;;;5113682;27;20071;-61
2022/05/05 14:27:46;;;;;;;36.35;5.40;;;;;;;;;;5136135;27;20058;-61
2022/05/05 14:30:13;;;;;;;25.00;4.68;;;;;;;;;;5136149;27;20135;-61
2022/05/05 14:32:40;;;;;;;63.20;6.40;;;;;;;;;;5119355;27;20396;-61
2022/05/05 14:35:07;;;;;;;33.50;4.97;;;;;;;;;;5135232;27;20035;-61
2022/05/05 14:37:33;;;;;;;21.92;3.63;;;;;;;;;;5135228;27;20039;-60
2022/05/05 14:40:00;;;;;;;12.18;3.53;;;;;;;;;;5136133;27;20126;-61
2022/05/05 14:42:28;;;;;;;10.68;2.95;;;;;;;;;;5136057;27;20058;-61
2022/05/05 14:44:54;;;;;;;38.22;6.32;;;;;;;;;;5135816;27;20049;-61
2022/05/05 14:47:21;;;;;;;28.85;6.68;;;;;;;;;;5135804;27;20511;-60
2022/05/05 14:49:48;;;;;;;91.57;7.93;;;;;;;;;;5136844;27;20114;-61
2022/05/05 14:52:18;;;;;;;199.48;17.45;;;;;;;;;;5135035;27;20039;-60
2022/05/05 14:54:45;;;;;;;44.95;5.97;;;;;;;;;;5136133;27;20035;-60
2022/05/05 14:57:13;;;;;;;46.47;7.72;;;;;;;;;;5134652;27;20431;-60
2022/05/05 14:59:40;;;;;;;25.85;6.00;;;;;;;;;;5136055;27;20039;-61
2022/05/05 15:02:07;;;;;;;20.38;4.07;;;;;;;;;;5136148;27;20047;-60
2022/05/05 15:04:33;;;;;;;31.17;5.65;;;;;;;;;;5135709;27;20039;-60
2022/05/05 15:07:00;;;;;;;71.10;8.02;;;;;;;;;;5135088;27;20490;-60
2022/05/05 15:09:26;;;;;;;22.13;4.93;;;;;;;;;;5135617;27;20137;-61
2022/05/05 15:11:53;;;;;;;20.63;4.00;;;;;;;;;;5135672;27;20256;-61
2022/05/05 15:14:19;;;;;;;25.45;4.47;;;;;;;;;;5129922;27;20048;-61
2022/05/05 15:16:46;;;;;;;10.65;3.13;;;;;;;;;;5136081;27;20041;-61
2022/05/05 15:19:13;;;;;;;14.38;3.42;;;;;;;;;;5135306;27;20130;-61
2022/05/05 15:21:39;;;;;;;20.52;3.42;;;;;;;;;;5135155;27;20415;-60
2022/05/05 15:24:07;;;;;;;17.77;3.50;;;;;;;;;;5135497;27;20031;-61
2022/05/05 15:26:33;;;;;;;78.28;7.47;;;;;;;;;;5135244;27;20054;-61
2022/05/05 15:29:06;;;;;;;58.72;5.63;;;;;;;;;;5135900;27;20039;-60
2022/05/05 15:31:32;;;;;;;21.80;4.65;;;;;;;;;;5135355;27;20035;-61
2022/05/05 15:33:59;;;;;;;115.72;23.90;;;;;;;;;;5135221;27;20510;-61
2022/05/05 15:36:26;;;;;;;356.48;26.83;;;;;;;;;;5134149;27;20039;-60
2022/05/05 15:38:52;;;;;;;48.97;5.72;;;;;;;;;;5135127;27;20114;-60
2022/05/05 15:41:19;;;;;;;68.22;7.20;;;;;;;;;;5135133;27;20035;-60